Strona główna
METAR-TAF:

METAR-TAF

Lotnisko :

Port lotniczy Gloucester

Gloucester, Anglia

Szerokość geograficzna: 51-54N, Długość geograficzna: 002-10W, wysokość: 29 m

Aktualna obserwacja pogody

Raport powstał 21 minut temu, godzina 08:20 UTC
Wiatr 6 kt od południowy zachód, zmienny między południowo-południowy zachód i zachód
Temperatura 18°C
Wilgotność 83%
Ciśnienie 1019 hPa
Widzialność 10 km lub więcej
Mało chmury na wysokości 1600 ft
Rozproszone chmury na wysokości 2200 ft

METAR: EGBJ 210820Z 23006KT 200V260 9999 FEW016 SCT022 18/15 Q1019

czas: 09:41 (08:41 UTC)

Prognoza

Raport powstał 14 minut temu, godzina 08:27 UTC
Prognoza ważna od 21 godzina 09 UTC do 21 godzina 18 UTC
Wiatr 9 kt od południowy zachód
Widzialność 10 km lub więcej
Mało chmury na wysokości 1500 ft
Rozproszone chmury na wysokości 3000 ft

TAF: EGBJ 210827Z 2109/2118 23009KT 9999 FEW015 SCT030

Obserwacja i prognoza pogody dla ponad 4000 lotnisk (raport METAR i TAF).

Dostępne stacje oznaczono żółtymi i czerwonymi punktami na mapie.

Najedź kursorem aby zobaczyć nazwę stacji.

Kliknij aby zobaczyć obserwacje i prognozy pogody.

Aby zmienić mapę: kliknij na zielony przycisk z czarnym krzyżykiem, aby powiększyć; na zielony przycisk z myślnikiem, aby pomniejszyć; na zielone strzałki, aby przejść do map sąsiednich.


METAR-TAF: